Last 6 Hours

AM-Scott Top 8120'

15 Minute Data | America/Los_Angeles
as of 2/24/24 1:11 AM PST
Date & Time Temp (°F) RH (%) Dew Pt (°F) Wet Bulb (°F) Wind Dir (°) Wind Spd (mph) Wind Gust (mph) WindChill (°F) Daily Min Temp (°F) Daily Max Temp (°F)
2/24/24 - 0100 32.3 60 20.1 27.6 WNW | 296 0.7 2.3 32.3 31.2 33.6
2/24/24 - 0045 33.2 58 19.9 28.0 S | 174 1.0 2.8 33.2 31.2 33.6
2/24/24 - 0030 31.4 68 22.1 27.7 W | 261 0.5 1.9 31.4 31.4 33.6
2/24/24 - 0015 31.9 66 21.8 27.9 N | 351 1.3 3.3 31.9 31.9 33.6
2/24/24 - 0000 33.3 59 20.5 28.2 SW | 220 2.1 8.3 33.3 26.8 38.0
2/23/24 - 2345 30.9 73 23.3 27.8 NNE | 12 1.0 3.2 30.9 26.8 38.0
2/23/24 - 2330 31.4 68 22.1 27.7 NE | 34 0.4 2.7 31.4 26.8 38.0
2/23/24 - 2315 33.9 58 20.6 28.6 WSW | 255 4.4 8.6 33.9 26.8 38.0
2/23/24 - 2300 32.6 66 22.6 28.5 WSW | 240 4.5 9.6 32.6 26.8 38.0
2/23/24 - 2245 30.7 74 23.3 27.7 WSW | 255 4.1 10.8 26.2 26.8 38.0
2/23/24 - 2230 31.1 73 23.4 28.0 WSW | 251 5.6 11.1 26.5 26.8 38.0
2/23/24 - 2215 31.6 72 23.5 28.3 WSW | 247 7.9 11.3 24.5 26.8 38.0
2/23/24 - 2200 31.2 73 23.5 28.1 WSW | 245 7.3 12.2 24.0 26.8 38.0
2/23/24 - 2145 31.3 73 23.6 28.2 WSW | 240 4.7 10.9 23.5 26.8 38.0
2/23/24 - 2130 30.8 77 24.5 28.2 WSW | 249 3.8 9.0 24.4 26.8 38.0
2/23/24 - 2115 30.8 77 24.3 28.1 WSW | 249 3.5 7.4 27.4 26.8 38.0
2/23/24 - 2100 30.5 80 25.1 28.3 WSW | 249 3.7 7.4 30.5 26.8 38.0
2/23/24 - 2045 29.9 85 26.0 28.2 WSW | 248 2.5 6.4 29.9 26.8 38.0
2/23/24 - 2030 30.2 84 26.1 28.5 WSW | 237 2.1 6.6 25.4 26.8 38.0
2/23/24 - 2015 30.1 85 26.1 28.4 SW | 215 2.0 8.9 30.1 26.8 38.0
2/23/24 - 2000 30.5 81 25.5 28.4 WSW | 243 2.5 6.0 30.5 26.8 38.0
2/23/24 - 1945 30.7 80 25.3 28.5 WSW | 250 3.1 8.4 26.7 26.8 38.0
2/23/24 - 1930 30.8 80 25.3 28.5 WSW | 241 2.9 8.0 30.8 26.8 38.0
2/23/24 - 1915 30.0 84 25.7 28.2 W | 276 1.5 4.8 25.5 26.8 38.0
Max 33.9 85 26.1 28.6 - 7.9 12.2 33.9 31.9 38.0
Avg 31.3 73 23.5 28.2 - 3.0 7.2 29.0 - -
Min 29.9 58 19.9 27.6 - 0.4 1.9 23.5 26.8 33.6